Latest Weather Observations for Mount Stuart (Defence)

IDQ60801

Issued at 7:02 pm EST Thursday 19 October 2017 (issued every 30 minutes, with the page automatically refreshed every 10 minutes)

About weather observations | Map of weather stations | Latest weather observations for QLD | Other Formats
Station Details ID: 032195 Name: MOUNT STUART (DEFENCE) Lat: -19.41 Lon: 146.76 Height: 163.0 m
Data from the previous 72 hours. | See also: Recent months for locations in Queensland
Date/Time
EST
Temp
°C
App
Temp
°C
Dew
Point
°C
Rel
Hum
%
Delta-T
°C
Wind Press
QNH
hPa
Press
MSL
hPa
Rain since
9am
mm
Dir  Spd
km/h
Gust
km/h
Spd
kts
Gust
kts
19/07:00pm 21.2 24.2 21.2 100 0.0 SW 7 11 4 6 - - 29.8
19/06:30pm 21.1 24.6 21.1 100 0.0 SW 4 9 2 5 - - 29.2
19/06:00pm 21.2 25.5 21.2 100 0.0 CALM 0 0 0 0 - - 28.6
19/05:30pm 21.2 25.5 21.2 100 0.0 CALM 0 0 0 0 - - 26.6
19/05:00pm 21.4 25.4 21.4 100 0.0 W 2 4 1 2 - - 26.4
19/04:30pm 21.3 24.9 21.3 100 0.0 W 4 7 2 4 - - 24.6
19/04:00pm 21.5 25.6 21.5 100 0.0 WNW 2 9 1 5 - - 23.6
19/03:30pm 21.6 25.4 21.6 100 0.0 W 4 7 2 4 - - 22.4
19/03:00pm 21.3 25.3 21.3 100 0.0 SW 2 4 1 2 - - 22.2
19/02:30pm 21.4 24.5 21.4 100 0.0 WNW 7 15 4 8 - - 21.8
19/02:00pm 21.2 23.8 21.2 100 0.0 NW 9 17 5 9 - - 21.4
19/01:30pm 21.3 23.6 21.3 100 0.0 N 11 15 6 8 - - 18.8
19/01:00pm 21.0 22.0 21.0 100 0.0 NNW 17 26 9 14 - - 18.0
19/12:30pm 21.9 21.3 20.5 92 0.9 NE 24 43 13 23 - - 6.2
19/12:27pm 23.8 22.7 21.1 85 1.8 ENE 28 54 15 29 - - 5.0
19/12:00pm 25.3 22.9 21.8 81 2.3 ENE 37 56 20 30 - - 4.4
19/11:30am 25.5 23.5 22.6 84 2.0 ENE 37 57 20 31 - - 4.4
19/11:01am 24.8 25.0 23.4 92 1.0 ENE 28 54 15 29 - - 4.4
19/11:00am 24.8 25.5 24.3 97 0.3 ENE 28 43 15 23 - - 4.4
19/10:30am 23.3 22.7 23.3 100 0.0 E 32 52 17 28 - - 3.8
19/10:00am 23.5 21.4 23.0 97 0.3 E 39 59 21 32 - - 0.8
19/09:51am 24.6 23.5 22.5 88 1.4 E 32 50 17 27 - - 0.4
19/09:30am 24.3 24.4 24.0 98 0.2 E 30 48 16 26 - - 0.4
19/09:00am 24.1 24.0 23.6 97 0.3 ENE 30 48 16 26 - - 7.8
19/08:53am 23.8 23.8 23.8 100 0.0 E 30 50 16 27 - - 7.8
19/08:30am 23.3 23.4 23.3 100 0.0 ENE 28 41 15 22 - - 7.6
19/08:00am 23.7 24.4 23.0 96 0.5 E 24 39 13 21 - - 5.8
19/07:30am 22.6 25.2 22.6 100 0.0 SE 13 20 7 11 - - 5.8
19/07:00am 22.1 24.4 22.1 100 0.0 SE 13 20 7 11 - - 5.8
19/06:30am 22.8 25.9 22.1 96 0.5 SE 9 15 5 8 - - 5.8
19/06:00am 22.6 25.8 22.3 98 0.2 ESE 9 17 5 9 - - 5.8
19/05:30am 23.2 24.3 22.0 93 0.8 E 19 32 10 17 - - 5.8
19/05:00am 22.9 24.2 22.4 97 0.3 E 19 26 10 14 - - 5.8
19/04:30am 22.5 23.6 22.3 99 0.1 ENE 20 33 11 18 - - 5.8
19/04:00am 22.4 22.5 21.9 97 0.3 ENE 24 37 13 20 - - 5.8
19/03:30am 22.3 24.7 22.3 100 0.0 E 13 20 7 11 - - 5.8
19/03:00am 22.1 23.1 22.1 100 0.0 ENE 20 30 11 16 - - 5.8
19/02:30am 22.3 23.4 22.3 100 0.0 ENE 20 32 11 17 - - 4.6
19/02:16am 22.1 21.5 21.9 99 0.1 ENE 28 48 15 26 - - 4.2
19/02:00am 22.4 25.3 22.4 100 0.0 E 11 20 6 11 - - 2.8
19/01:30am 21.9 25.8 21.9 100 0.0 S 4 7 2 4 - - 2.8
19/01:00am 21.7 25.9 21.7 100 0.0 SSE 2 7 1 4 - - 2.6
19/12:30am 21.8 24.0 21.8 100 0.0 SSW 13 20 7 11 - - 2.6
19/12:00am 22.3 25.7 22.0 98 0.2 ESE 7 15 4 8 - - 2.6
 
Date/Time
EST
Temp
°C
App
Temp
°C
Dew
Point
°C
Rel
Hum
%
Delta-T
°C
Wind Press
QNH
hPa
Press
MSL
hPa
Rain since
9am
mm
Dir  Spd
km/h
Gust
km/h
Spd
kts
Gust
kts
18/11:30pm 22.2 24.1 22.0 99 0.1 ENE 15 22 8 12 - - 2.2
18/11:00pm 22.0 23.4 21.8 99 0.1 E 17 24 9 13 - - 2.2
18/10:30pm 22.1 23.6 21.3 95 0.5 ENE 15 20 8 11 - - 2.2
18/10:00pm 22.9 23.8 20.1 84 1.8 E 15 22 8 12 - - 2.0
18/09:30pm 22.6 23.5 20.1 86 1.6 ENE 15 19 8 10 - - 2.0
18/09:00pm 22.5 23.9 20.4 88 1.4 ENE 13 17 7 9 - - 2.0
18/08:30pm 22.6 26.7 20.7 89 1.2 CALM 0 0 0 0 - - 2.0
18/08:00pm 22.5 25.5 20.8 90 1.1 E 6 11 3 6 - - 2.0
18/07:30pm 22.3 25.1 20.8 91 1.0 SSE 7 15 4 8 - - 2.0
18/07:00pm 22.5 24.4 21.3 93 0.8 ESE 13 20 7 11 - - 2.0
18/06:30pm 22.1 23.2 21.9 99 0.1 E 19 28 10 15 - - 2.0
18/06:12pm 22.6 21.5 21.1 91 1.0 E 28 48 15 26 - - 0.4
18/06:00pm 23.0 22.6 20.9 88 1.4 E 24 39 13 21 - - 0.4
18/05:30pm 22.9 24.2 20.8 88 1.4 ENE 15 30 8 16 - - 0.2
18/05:00pm 22.4 22.6 20.1 87 1.5 ENE 19 32 10 17 - - 0.2
18/04:30pm 24.0 23.1 19.1 74 3.1 ENE 22 33 12 18 - - 0.0
18/04:00pm 24.6 25.9 18.5 69 3.9 ENE 9 22 5 12 - - 0.0
18/03:30pm 24.3 26.4 20.2 78 2.7 SSE 9 17 5 9 - - 0.0
18/03:00pm 23.4 23.2 19.8 80 2.3 E 20 30 11 16 - - 0.0
18/02:30pm 24.8 24.8 20.1 75 3.1 E 20 33 11 18 - - 0.0
18/02:00pm 23.9 24.5 20.2 80 2.4 E 17 30 9 16 - - 0.0
18/01:30pm 24.8 23.1 18.0 66 4.3 E 24 37 13 20 - - 0.0
18/01:00pm 23.9 23.5 18.1 70 3.7 ENE 17 22 9 12 - - 0.0
18/12:30pm 23.6 22.8 18.0 71 3.5 ENE 19 26 10 14 - - 0.0
18/12:00pm 24.6 25.6 17.8 66 4.3 NNE 9 15 5 8 - - 0.0
18/11:30am 24.3 26.6 18.5 70 3.7 ESE 4 7 2 4 - - 0.0
18/11:00am 23.3 25.3 19.2 78 2.6 SE 7 13 4 7 - - 0.0
18/10:30am 22.7 25.1 20.0 85 1.7 SE 7 13 4 7 - - 0.0
18/10:00am 22.0 24.4 20.8 93 0.8 S 9 13 5 7 - - 0.0
18/09:30am 21.6 22.8 19.9 90 1.1 ESE 13 19 7 10 - - 0.0
18/09:00am 21.4 22.9 19.7 90 1.1 E 11 15 6 8 - - 18.0
18/08:30am 21.1 22.9 19.6 91 1.0 E 9 13 5 7 - - 18.0
18/08:00am 20.8 22.1 19.3 91 1.0 NE 11 13 6 7 - - 18.0
18/07:30am 20.4 22.0 19.9 97 0.3 NE 11 15 6 8 - - 18.0
18/07:00am 20.0 22.0 20.0 100 0.0 NW 9 13 5 7 - - 18.0
18/06:30am 19.8 22.1 19.8 100 0.0 NW 7 11 4 6 - - 18.0
18/06:00am 19.6 21.4 19.6 100 0.0 W 9 13 5 7 - - 18.0
18/05:30am 19.9 21.9 19.9 100 0.0 W 9 15 5 8 - - 18.0
18/05:00am 19.9 21.9 19.9 100 0.0 SSE 9 13 5 7 - - 18.0
18/04:30am 19.8 22.2 19.6 99 0.1 E 6 17 3 9 - - 18.0
18/04:00am 19.7 21.6 19.7 100 0.0 ESE 9 15 5 8 - - 17.4
18/03:30am 19.6 21.4 19.6 100 0.0 NNW 9 13 5 7 - - 15.8
18/03:00am 19.6 21.4 19.6 100 0.0 WSW 9 15 5 8 - - 15.6
18/02:30am 19.8 22.1 19.8 100 0.0 W 7 13 4 7 - - 15.4
18/02:00am 19.6 22.4 19.6 100 0.0 SE 4 9 2 5 - - 15.0
18/01:30am 19.4 22.8 19.4 100 0.0 CALM 0 0 0 0 - - 15.0
18/01:00am 19.5 20.5 19.5 100 0.0 WNW 13 20 7 11 - - 15.0
18/12:30am 19.6 22.4 19.6 100 0.0 E 4 6 2 3 - - 15.0
18/12:00am 19.6 21.8 19.6 100 0.0 ENE 7 11 4 6 - - 14.6
 
Date/Time
EST
Temp
°C
App
Temp
°C
Dew
Point
°C
Rel
Hum
%
Delta-T
°C
Wind Press
QNH
hPa
Press
MSL
hPa
Rain since
9am
mm
Dir  Spd
km/h
Gust
km/h
Spd
kts
Gust
kts
17/11:30pm 19.4 21.5 19.4 100 0.0 ENE 7 13 4 7 - - 14.2
17/11:00pm 19.4 20.4 19.4 100 0.0 E 13 15 7 8 - - 13.4
17/10:30pm 19.6 21.8 19.6 100 0.0 ESE 7 9 4 5 - - 13.0
17/10:00pm 19.7 22.0 19.5 99 0.1 SSW 6 9 3 5 - - 12.2
17/09:30pm 19.6 21.0 19.6 100 0.0 SW 11 15 6 8 - - 11.8
17/09:00pm 19.8 21.3 19.8 100 0.0 WSW 11 15 6 8 - - 11.4
17/08:30pm 20.0 22.6 20.0 100 0.0 S 6 6 3 3 - - 10.0
17/08:00pm 20.1 22.5 20.1 100 0.0 NE 7 9 4 5 - - 8.8
17/07:30pm 20.1 22.7 20.1 100 0.0 WSW 6 9 3 5 - - 5.2
17/07:00pm 20.0 22.0 20.0 100 0.0 SW 9 13 5 7 - - 4.8
17/06:30pm 20.1 22.7 20.1 100 0.0 SSW 6 11 3 6 - - 4.8
17/06:00pm 20.3 23.4 20.3 100 0.0 WSW 4 7 2 4 - - 4.6
17/05:30pm 20.3 23.0 20.3 100 0.0 SSW 6 9 3 5 - - 4.4
17/05:00pm 20.3 22.5 20.3 100 0.0 SSW 9 15 5 8 - - 4.4
17/04:30pm 20.3 22.5 20.3 100 0.0 SW 9 17 5 9 - - 4.0
17/04:00pm 19.9 22.2 19.9 100 0.0 SSW 7 13 4 7 - - 3.4
17/03:30pm 20.0 22.4 20.0 100 0.0 S 7 13 4 7 - - 3.2
17/03:00pm 20.5 24.5 20.5 100 0.0 CALM 0 4 0 2 - - 3.0
17/02:30pm 20.4 23.1 20.2 99 0.1 SSE 6 7 3 4 - - 2.4
17/02:00pm 20.1 22.0 19.8 98 0.2 WSW 9 15 5 8 - - 1.8
17/01:30pm 21.3 24.2 20.6 96 0.5 SW 6 13 3 7 - - 1.0
17/01:00pm 21.7 23.9 19.6 88 1.3 SSW 7 15 4 8 - - 0.8
17/12:30pm 22.2 23.1 19.2 83 1.9 SE 13 19 7 10 - - 0.8
17/12:00pm 23.3 26.3 19.2 78 2.6 S 2 7 1 4 - - 0.8
17/11:30am 24.0 25.7 18.0 69 3.8 SSW 6 9 3 5 - - 0.2
17/11:00am 24.6 26.5 18.5 69 3.9 SSW 6 9 3 5 - - 0.0
17/10:30am 24.4 26.4 18.8 71 3.6 S 6 11 3 6 - - 0.0
17/10:00am 22.8 24.3 17.7 73 3.2 SSW 6 11 3 6 - - 0.0
17/09:30am 21.6 22.8 17.4 77 2.6 ESE 7 11 4 6 - - 0.0
17/09:00am 21.6 23.5 17.6 78 2.5 SE 4 9 2 5 - - 3.8
17/08:30am 21.1 22.5 17.9 82 2.0 SSE 7 15 4 8 - - 3.8
17/08:00am 20.4 22.0 17.8 85 1.6 ESE 6 9 3 5 - - 3.8
17/07:30am 20.0 22.9 18.1 89 1.2 CALM 0 4 0 2 - - 3.8
17/07:00am 19.4 21.5 18.2 93 0.7 SSE 4 7 2 4 - - 3.8
17/06:30am 18.8 21.3 18.1 96 0.4 E 2 6 1 3 - - 3.8
17/06:00am 18.4 19.8 17.9 97 0.3 E 7 9 4 5 - - 3.8
17/05:30am 19.1 20.4 18.4 96 0.4 S 9 11 5 6 - - 3.8
17/05:00am 19.0 21.1 18.0 94 0.6 ENE 4 6 2 3 - - 3.8
17/04:30am 18.4 18.8 18.2 99 0.1 ENE 13 15 7 8 - - 3.8
17/04:00am 19.0 20.8 17.5 91 0.9 NNE 4 9 2 5 - - 3.8
17/03:30am 19.8 20.6 18.1 90 1.1 WNW 11 13 6 7 - - 3.8
17/03:00am 19.6 21.0 17.9 90 1.1 WNW 7 13 4 7 - - 3.8
17/02:30am 19.1 20.0 17.6 91 0.9 W 9 15 5 8 - - 3.8
17/02:00am 18.8 18.7 17.8 94 0.6 W 15 19 8 10 - - 3.8
17/01:30am 19.2 20.6 17.7 91 0.9 W 7 9 4 5 - - 3.8
17/01:00am 19.1 22.0 18.3 95 0.5 CALM 0 6 0 3 - - 3.8
17/12:30am 19.5 20.4 17.6 89 1.2 SE 9 17 5 9 - - 3.8
17/12:00am 20.0 22.1 19.3 96 0.4 SE 7 13 4 7 - - 3.8
 
Date/Time
EST
Temp
°C
App
Temp
°C
Dew
Point
°C
Rel
Hum
%
Delta-T
°C
Wind Press
QNH
hPa
Press
MSL
hPa
Rain since
9am
mm
Dir  Spd
km/h
Gust
km/h
Spd
kts
Gust
kts
16/11:30pm 20.1 22.7 20.1 100 0.0 SW 6 9 3 5 - - 3.8
16/11:00pm 20.3 22.8 20.3 100 0.0 SSW 7 11 4 6 - - 3.8
16/10:30pm 20.3 22.5 20.3 100 0.0 S 9 15 5 8 - - 3.8
16/10:00pm 20.3 24.2 20.3 100 0.0 CALM 0 7 0 4 - - 3.8
16/09:30pm 20.4 23.1 20.2 99 0.1 SSE 6 7 3 4 - - 3.8
16/09:00pm 20.2 23.2 20.0 99 0.1 E 4 6 2 3 - - 3.8
16/08:30pm 20.1 22.4 19.9 99 0.1 E 7 7 4 4 - - 3.8
16/08:00pm 20.2 21.6 19.5 96 0.4 NNE 11 13 6 7 - - 3.6
16/07:30pm 20.0 22.3 19.8 99 0.1 NNE 7 13 4 7 - - 3.6

Other Formats:

Comma delimited format used in spreadsheet applications
http://www.bom.gov.au/fwo/IDQ60801/IDQ60801.94272.axf

JavaScript Object Notation format (JSON) in row-major order
http://www.bom.gov.au/fwo/IDQ60801/IDQ60801.94272.json